createdAt,value
2019-03-31T00:00:04.561Z,8.74
2019-03-31T00:01:13.024Z,8.7
2019-03-31T00:02:04.510Z,8.66
2019-03-31T00:03:04.514Z,8.71
2019-03-31T00:04:04.485Z,8.68
2019-03-31T00:05:04.506Z,8.73
2019-03-31T00:06:04.473Z,8.73
2019-03-31T00:07:04.481Z,8.73
2019-03-31T00:08:04.441Z,8.73
2019-03-31T00:09:04.254Z,8.79
2019-03-31T00:10:04.422Z,8.73
2019-03-31T00:11:05.578Z,8.74
2019-03-31T00:12:04.438Z,8.81
2019-03-31T00:13:04.381Z,8.68
2019-03-31T00:14:04.379Z,8.84
2019-03-31T00:15:04.371Z,8.77
2019-03-31T00:16:04.473Z,8.8
2019-03-31T00:17:04.369Z,8.77
2019-03-31T00:18:04.331Z,8.79
2019-03-31T00:19:04.332Z,8.79
2019-03-31T00:20:04.306Z,8.79
2019-03-31T00:21:04.326Z,8.77
2019-03-31T00:22:04.284Z,8.79
2019-03-31T00:23:04.278Z,8.83
2019-03-31T00:24:04.288Z,8.77
2019-03-31T00:25:04.258Z,8.79
2019-03-31T00:26:04.267Z,8.77
2019-03-31T00:27:03.990Z,8.66
2019-03-31T00:28:04.334Z,8.8
2019-03-31T00:29:04.271Z,8.8
2019-03-31T00:30:04.192Z,8.74
2019-03-31T00:31:04.194Z,8.81
2019-03-31T00:32:04.202Z,8.68
2019-03-31T00:33:04.187Z,8.77
2019-03-31T00:34:04.145Z,8.71
2019-03-31T00:35:04.150Z,8.74
2019-03-31T00:36:04.120Z,8.81
2019-03-31T00:37:07.345Z,8.81
2019-03-31T00:38:04.099Z,8.76
2019-03-31T00:39:04.186Z,8.71
2019-03-31T00:40:04.078Z,8.8
2019-03-31T00:41:04.100Z,8.81
2019-03-31T00:42:04.053Z,8.8
2019-03-31T00:43:04.075Z,8.8
2019-03-31T00:44:04.033Z,8.86
2019-03-31T00:45:04.055Z,8.83
2019-03-31T00:46:04.055Z,8.91
2019-03-31T00:47:07.033Z,8.94
2019-03-31T00:48:03.987Z,8.94
2019-03-31T00:49:04.004Z,8.98
2019-03-31T00:50:03.995Z,8.94
2019-03-31T00:51:03.979Z,8.89
2019-03-31T00:52:03.943Z,8.98
2019-03-31T00:53:03.966Z,8.89
2019-03-31T00:54:03.680Z,8.96
2019-03-31T00:55:03.938Z,8.98
2019-03-31T00:56:03.894Z,9.05
2019-03-31T00:57:03.914Z,9.02
2019-03-31T00:58:03.873Z,9.08
2019-03-31T00:59:03.886Z,9.15
2019-03-31T01:00:03.863Z,9.17
2019-03-31T01:01:03.875Z,9.24
2019-03-31T01:02:03.869Z,9.18
2019-03-31T01:03:03.837Z,9.23
2019-03-31T01:04:03.804Z,9.32
2019-03-31T01:05:03.800Z,9.31
2019-03-31T01:06:03.820Z,9.32
2019-03-31T01:07:03.808Z,9.35
2019-03-31T01:08:03.800Z,9.36
2019-03-31T01:09:03.754Z,9.35
2019-03-31T01:10:03.778Z,9.43
2019-03-31T01:11:03.732Z,9.43
2019-03-31T01:12:03.753Z,9.46
2019-03-31T01:13:03.782Z,9.43
2019-03-31T01:14:03.722Z,9.4
2019-03-31T01:15:03.705Z,9.43
2019-03-31T01:16:03.672Z,9.42
2019-03-31T01:17:03.695Z,9.43
2019-03-31T01:18:03.683Z,9.4
2019-03-31T01:19:03.875Z,9.47
2019-03-31T01:20:03.639Z,9.4
2019-03-31T01:21:03.619Z,9.39
2019-03-31T01:22:03.634Z,9.29
2019-03-31T01:23:03.615Z,9.35
2019-03-31T01:24:03.618Z,9.29
2019-03-31T01:25:03.573Z,9.23
2019-03-31T01:26:05.396Z,9.29
2019-03-31T01:27:03.556Z,9.2
2019-03-31T01:28:03.579Z,9.17
2019-03-31T01:29:03.530Z,9.17
2019-03-31T01:30:03.560Z,9.14
2019-03-31T01:31:03.525Z,9.2
2019-03-31T01:32:03.547Z,9.21
2019-03-31T01:33:03.491Z,9.18
2019-03-31T01:34:03.485Z,9.08
2019-03-31T01:35:03.480Z,9.11
2019-03-31T01:36:03.488Z,9.05
2019-03-31T01:37:03.483Z,8.99
2019-03-31T01:38:03.196Z,9.05
2019-03-31T01:39:03.455Z,9.1
2019-03-31T01:40:03.453Z,9.04
2019-03-31T01:41:03.400Z,8.96
2019-03-31T01:42:03.419Z,8.96
2019-03-31T01:43:03.382Z,8.95
2019-03-31T01:44:03.403Z,8.96
2019-03-31T01:45:03.365Z,8.89
2019-03-31T01:46:03.378Z,8.89
2019-03-31T01:47:03.350Z,8.86
2019-03-31T01:48:03.354Z,8.84
2019-03-31T01:49:03.315Z,8.84
2019-03-31T01:50:03.305Z,8.79
2019-03-31T01:51:03.304Z,8.8
2019-03-31T01:52:03.312Z,8.83
2019-03-31T01:53:03.270Z,8.8
2019-03-31T01:54:03.287Z,8.76
2019-03-31T01:55:03.262Z,8.76
2019-03-31T01:56:03.272Z,8.68
2019-03-31T01:57:03.238Z,8.65
2019-03-31T01:58:03.238Z,8.66
2019-03-31T01:59:02.981Z,8.68
2019-03-31T02:00:03.226Z,8.58
2019-03-31T02:01:03.203Z,8.56
2019-03-31T02:02:09.441Z,8.62
2019-03-31T02:03:03.249Z,8.66
2019-03-31T02:04:03.177Z,8.59
2019-03-31T02:05:03.130Z,8.66
2019-03-31T02:06:03.155Z,8.56
2019-03-31T02:07:03.134Z,8.55
2019-03-31T02:08:03.099Z,8.55
2019-03-31T02:09:03.093Z,8.48
2019-03-31T02:10:03.126Z,8.53
2019-03-31T02:11:03.081Z,8.53
2019-03-31T02:12:03.085Z,8.52
2019-03-31T02:13:03.048Z,8.52
2019-03-31T02:14:03.063Z,8.52
2019-03-31T02:15:03.030Z,8.5
2019-03-31T02:16:02.851Z,8.47
2019-03-31T02:17:02.997Z,8.48
2019-03-31T02:18:03.018Z,8.48
2019-03-31T02:19:02.994Z,8.5
2019-03-31T02:20:02.998Z,8.52
2019-03-31T02:21:02.953Z,8.44
2019-03-31T02:22:02.942Z,8.47
2019-03-31T02:23:02.945Z,8.52
2019-03-31T02:24:02.945Z,8.52
2019-03-31T02:25:02.943Z,8.47
2019-03-31T02:26:02.909Z,8.45
2019-03-31T02:27:02.650Z,8.37
2019-03-31T02:28:02.871Z,8.41
2019-03-31T02:29:02.889Z,8.4
2019-03-31T02:30:03.183Z,8.48
2019-03-31T02:31:02.942Z,8.41
2019-03-31T02:32:02.867Z,8.38
2019-03-31T02:33:02.848Z,8.5
2019-03-31T02:34:02.854Z,8.44
2019-03-31T02:35:02.897Z,8.36
2019-03-31T02:36:02.919Z,8.5
2019-03-31T02:37:02.778Z,8.43
2019-03-31T02:38:02.797Z,8.37
2019-03-31T02:39:02.778Z,8.4
2019-03-31T02:40:03.004Z,8.37
2019-03-31T02:41:02.760Z,8.36
2019-03-31T02:42:02.726Z,8.41
2019-03-31T02:43:02.721Z,8.37
2019-03-31T02:44:02.689Z,8.38
2019-03-31T02:45:03.202Z,8.29
2019-03-31T02:46:02.677Z,8.3
2019-03-31T02:47:02.690Z,8.28
2019-03-31T02:48:02.525Z,8.36
2019-03-31T02:49:02.678Z,8.36
2019-03-31T02:50:03.176Z,8.29
2019-03-31T02:51:02.646Z,8.29
2019-03-31T02:52:02.688Z,8.28
2019-03-31T02:53:02.614Z,8.33
2019-03-31T02:54:02.603Z,8.25
2019-03-31T02:55:02.947Z,8.22
2019-03-31T02:56:02.543Z,8.3
2019-03-31T02:57:02.574Z,8.33
2019-03-31T02:58:02.529Z,8.33
2019-03-31T02:59:02.524Z,8.19
2019-03-31T03:00:03.039Z,8.28
2019-03-31T03:01:02.548Z,8.2
2019-03-31T03:02:02.498Z,8.12
2019-03-31T03:03:02.506Z,8.22
2019-03-31T03:04:02.460Z,8.12
2019-03-31T03:05:20.433Z,8.12
2019-03-31T03:06:02.436Z,8.15
2019-03-31T03:07:02.437Z,8.15
2019-03-31T03:08:02.408Z,8.15
2019-03-31T03:09:02.181Z,8.12
2019-03-31T03:10:02.460Z,8.18
2019-03-31T03:11:02.387Z,8.1
2019-03-31T03:12:02.378Z,8.11
2019-03-31T03:13:02.358Z,8.05
2019-03-31T03:14:02.367Z,8.12
2019-03-31T03:15:02.343Z,8.18
2019-03-31T03:16:02.356Z,8.12
2019-03-31T03:17:02.313Z,8.15
2019-03-31T03:18:02.327Z,8.04
2019-03-31T03:19:02.279Z,8.01
2019-03-31T03:20:02.299Z,8.02
2019-03-31T03:21:02.276Z,8.02
2019-03-31T03:22:02.281Z,8.07
2019-03-31T03:23:02.249Z,8
2019-03-31T03:24:02.225Z,8.05
2019-03-31T03:25:02.254Z,8
2019-03-31T03:26:02.259Z,8.02
2019-03-31T03:27:02.227Z,7.97
2019-03-31T03:28:02.176Z,7.95
2019-03-31T03:29:02.214Z,7.95
2019-03-31T03:30:02.236Z,7.93
2019-03-31T03:31:03.843Z,7.97
2019-03-31T03:32:02.243Z,7.92
2019-03-31T03:33:21.011Z,7.89
2019-03-31T03:34:02.245Z,7.89
2019-03-31T03:35:02.222Z,7.86
2019-03-31T03:36:02.119Z,7.83
2019-03-31T03:37:02.069Z,7.92
2019-03-31T03:38:01.841Z,7.83
2019-03-31T03:39:02.098Z,7.85
2019-03-31T03:40:02.069Z,7.77
2019-03-31T03:41:02.019Z,7.82
2019-03-31T03:42:02.030Z,7.75
2019-03-31T03:43:02.026Z,7.77
2019-03-31T03:44:07.072Z,7.75
2019-03-31T03:45:02.056Z,7.75
2019-03-31T03:46:01.991Z,7.77
2019-03-31T03:47:01.968Z,7.77
2019-03-31T03:48:01.980Z,7.68
2019-03-31T03:49:02.132Z,7.68
2019-03-31T03:50:01.946Z,7.6
2019-03-31T03:51:01.669Z,7.57
2019-03-31T03:52:02.088Z,7.64
2019-03-31T03:53:01.643Z,7.58
2019-03-31T03:54:01.908Z,7.58
2019-03-31T03:55:01.921Z,7.6
2019-03-31T03:56:01.871Z,7.6
2019-03-31T03:57:01.832Z,7.57
2019-03-31T03:58:01.580Z,7.57
2019-03-31T03:59:01.833Z,7.57
2019-03-31T04:00:01.823Z,7.53
2019-03-31T04:01:01.818Z,7.52
2019-03-31T04:02:01.770Z,7.61
2019-03-31T04:03:01.772Z,7.55
2019-03-31T04:04:01.763Z,7.52
2019-03-31T04:05:01.789Z,7.64
2019-03-31T04:06:01.719Z,7.52
2019-03-31T04:07:01.793Z,7.52
2019-03-31T04:08:01.450Z,7.53
2019-03-31T04:09:01.732Z,7.57
2019-03-31T04:10:01.687Z,7.48
2019-03-31T04:11:01.675Z,7.45
2019-03-31T04:12:01.662Z,7.57
2019-03-31T04:13:01.672Z,7.48
2019-03-31T04:14:01.632Z,7.48
2019-03-31T04:15:01.670Z,7.48
2019-03-31T04:16:01.632Z,7.53
2019-03-31T04:17:01.618Z,7.49
2019-03-31T04:18:01.595Z,7.5
2019-03-31T04:19:01.592Z,7.53
2019-03-31T04:20:01.569Z,7.42
2019-03-31T04:21:01.576Z,7.39
2019-03-31T04:22:01.534Z,7.46
2019-03-31T04:23:01.544Z,7.42
2019-03-31T04:24:01.513Z,7.45
2019-03-31T04:25:01.517Z,7.37
2019-03-31T04:26:01.490Z,7.4
2019-03-31T04:27:01.239Z,7.37
2019-03-31T04:28:01.461Z,7.39
2019-03-31T04:29:01.488Z,7.3
2019-03-31T04:30:01.460Z,7.31
2019-03-31T04:31:01.189Z,7.25
2019-03-31T04:32:01.404Z,7.35
2019-03-31T04:33:01.388Z,7.31
2019-03-31T04:34:01.446Z,7.3
2019-03-31T04:35:01.385Z,7.25
2019-03-31T04:36:01.406Z,7.32
2019-03-31T04:37:01.337Z,7.34
2019-03-31T04:38:01.355Z,7.35
2019-03-31T04:39:05.081Z,7.35
2019-03-31T04:40:01.337Z,7.27
2019-03-31T04:41:01.333Z,7.28
2019-03-31T04:42:01.347Z,7.3
2019-03-31T04:43:01.285Z,7.39
2019-03-31T04:44:01.247Z,7.28
2019-03-31T04:45:01.304Z,7.32
2019-03-31T04:46:01.255Z,7.27
2019-03-31T04:47:01.234Z,7.31
2019-03-31T04:48:01.200Z,7.3
2019-03-31T04:49:01.186Z,7.21
2019-03-31T04:50:01.207Z,7.28
2019-03-31T04:51:01.180Z,7.27
2019-03-31T04:52:01.204Z,7.35
2019-03-31T04:53:00.899Z,7.31
2019-03-31T04:54:01.162Z,7.34
2019-03-31T04:55:01.182Z,7.3
2019-03-31T04:56:01.133Z,7.32
2019-03-31T04:57:04.364Z,7.32
2019-03-31T04:58:01.112Z,7.32
2019-03-31T04:59:01.088Z,7.27
2019-03-31T05:00:01.085Z,7.27
2019-03-31T05:01:01.037Z,7.24
2019-03-31T05:02:01.053Z,7.35
2019-03-31T05:03:01.034Z,7.34
2019-03-31T05:04:09.618Z,7.39
2019-03-31T05:05:00.988Z,7.39
2019-03-31T05:06:01.028Z,7.46
2019-03-31T05:07:00.984Z,7.42
2019-03-31T05:08:00.980Z,7.4
2019-03-31T05:09:00.936Z,7.53
2019-03-31T05:10:00.959Z,7.6
2019-03-31T05:11:00.920Z,7.53
2019-03-31T05:12:00.932Z,7.58
2019-03-31T05:13:00.892Z,7.55
2019-03-31T05:14:00.908Z,7.68
2019-03-31T05:15:00.629Z,7.75
2019-03-31T05:16:00.640Z,7.82
2019-03-31T05:17:00.851Z,7.87
2019-03-31T05:18:00.867Z,7.93
2019-03-31T05:19:00.849Z,8.02
2019-03-31T05:20:00.811Z,8.01
2019-03-31T05:21:00.801Z,8.12
2019-03-31T05:22:00.815Z,8.2
2019-03-31T05:23:00.795Z,8.29
2019-03-31T05:24:00.808Z,8.43
2019-03-31T05:25:00.749Z,8.48
2019-03-31T05:26:00.769Z,8.56
2019-03-31T05:27:00.725Z,8.7
2019-03-31T05:28:00.743Z,8.8
2019-03-31T05:29:00.709Z,8.89
2019-03-31T05:30:00.719Z,8.91
2019-03-31T05:31:00.704Z,9.1
2019-03-31T05:32:00.678Z,9.26
2019-03-31T05:33:00.692Z,9.24
2019-03-31T05:34:00.676Z,9.35
2019-03-31T05:35:00.660Z,9.43
2019-03-31T05:36:00.628Z,9.54
2019-03-31T05:37:00.621Z,9.65
2019-03-31T05:38:00.633Z,9.76
2019-03-31T05:39:00.610Z,9.87
2019-03-31T05:40:00.620Z,10.01
2019-03-31T05:41:00.577Z,10.07
2019-03-31T05:42:00.595Z,10.25
2019-03-31T05:43:00.555Z,10.4
2019-03-31T05:44:10.537Z,10.48
2019-03-31T05:45:00.615Z,10.61
2019-03-31T05:46:00.600Z,10.7
2019-03-31T05:47:00.532Z,10.91
2019-03-31T05:48:00.622Z,11.15
2019-03-31T05:49:00.503Z,11.25
2019-03-31T05:50:00.496Z,11.32
2019-03-31T05:51:00.493Z,11.54
2019-03-31T05:52:00.549Z,11.65
2019-03-31T05:53:00.491Z,11.76
2019-03-31T05:54:00.455Z,11.98
2019-03-31T05:55:00.460Z,12.07
2019-03-31T05:56:00.465Z,12.17
2019-03-31T05:57:00.427Z,12.31
2019-03-31T05:58:00.452Z,12.35
2019-03-31T05:59:00.413Z,12.56
2019-03-31T06:00:00.572Z,12.7
2019-03-31T06:01:00.394Z,12.74
2019-03-31T06:02:00.420Z,13.01
2019-03-31T06:03:00.392Z,13.1
2019-03-31T06:04:00.409Z,13.19
2019-03-31T06:05:00.364Z,13.39
2019-03-31T06:06:00.380Z,13.52
2019-03-31T06:07:00.366Z,13.54
2019-03-31T06:08:00.377Z,13.66
2019-03-31T06:09:00.370Z,13.69
2019-03-31T06:10:00.365Z,13.82
2019-03-31T06:11:00.335Z,13.81
2019-03-31T06:12:00.323Z,13.84
2019-03-31T06:13:00.346Z,13.95
2019-03-31T06:14:00.323Z,14.07
2019-03-31T06:15:00.416Z,14.03
2019-03-31T06:16:00.316Z,14.09
2019-03-31T06:17:00.320Z,14.18
2019-03-31T06:18:00.281Z,14.22
2019-03-31T06:19:00.295Z,14.28
2019-03-31T06:20:00.491Z,14.47
2019-03-31T06:21:00.298Z,14.62
2019-03-31T06:22:00.263Z,14.72
2019-03-31T06:23:00.023Z,14.86
2019-03-31T06:24:00.285Z,14.88
2019-03-31T06:25:00.358Z,14.88
2019-03-31T06:26:00.296Z,14.83
2019-03-31T06:27:00.275Z,14.58
2019-03-31T06:28:00.235Z,14.36
2019-03-31T07:12:00.003Z,12.85
2019-03-31T07:13:02.240Z,13.14
2019-03-31T07:13:59.989Z,13.19
2019-03-31T07:14:59.954Z,13.63
2019-03-31T07:15:59.982Z,13.89
2019-03-31T07:17:00.261Z,14.07
2019-03-31T07:17:59.962Z,14.25
2019-03-31T07:18:59.935Z,14.62
2019-03-31T07:19:59.963Z,14.83
2019-03-31T07:20:59.956Z,15.28
2019-03-31T07:21:59.951Z,15.51
2019-03-31T07:22:59.923Z,15.74
2019-03-31T07:23:59.916Z,16.02
2019-03-31T07:24:59.941Z,16.08
2019-03-31T07:25:59.691Z,16.2
2019-03-31T07:26:59.947Z,16.43
2019-03-31T07:27:59.905Z,16.66
2019-03-31T07:28:59.948Z,16.83
2019-03-31T07:29:59.924Z,16.93
2019-03-31T07:31:01.809Z,17
2019-03-31T07:31:59.933Z,17.06
2019-03-31T07:32:59.903Z,17.12
2019-03-31T07:33:59.919Z,17.25
2019-03-31T07:34:59.900Z,17.25
2019-03-31T07:35:59.936Z,17.23
2019-03-31T07:36:59.926Z,17.06
2019-03-31T07:37:59.915Z,16.86
2019-03-31T07:38:59.986Z,16.78
2019-03-31T07:40:00.717Z,16.63
2019-03-31T07:41:14.259Z,16.43
2019-03-31T07:42:00.434Z,16.39
2019-03-31T07:43:00.031Z,16.49
2019-03-31T07:44:00.057Z,16.43
2019-03-31T07:44:59.922Z,16.49
2019-03-31T07:46:00.800Z,16.46
2019-03-31T07:46:59.903Z,16.25
2019-03-31T07:47:59.941Z,16.31
2019-03-31T07:48:59.903Z,16.09
2019-03-31T07:49:59.928Z,16.12
2019-03-31T07:50:59.931Z,16.07
2019-03-31T07:51:59.935Z,16
2019-03-31T07:53:00.013Z,15.87
2019-03-31T07:53:59.925Z,15.83
2019-03-31T07:54:59.901Z,15.89
2019-03-31T07:55:59.937Z,16.04
2019-03-31T07:56:59.910Z,16.07
2019-03-31T07:57:59.938Z,16.08
2019-03-31T07:58:59.980Z,16.3
2019-03-31T08:00:01.553Z,16.35
2019-03-31T08:00:59.900Z,16.41
2019-03-31T08:01:59.930Z,16.45
2019-03-31T08:03:02.782Z,16.42
2019-03-31T08:03:59.931Z,16.33
2019-03-31T08:04:59.895Z,16.34
2019-03-31T08:05:59.911Z,16.12
2019-03-31T08:06:59.891Z,15.96
2019-03-31T08:07:59.928Z,15.69
2019-03-31T08:08:59.921Z,15.5
2019-03-31T08:09:59.927Z,15.35
2019-03-31T08:10:59.884Z,15.17
2019-03-31T08:11:59.909Z,14.88
2019-03-31T08:12:59.914Z,14.65
2019-03-31T08:14:00.284Z,14.51
2019-03-31T08:14:59.910Z,14.28
2019-03-31T08:15:59.874Z,14.28
2019-03-31T08:16:59.899Z,14.21
2019-03-31T08:17:59.870Z,14.06
2019-03-31T08:18:59.894Z,13.99
2019-03-31T08:19:59.859Z,13.97
2019-03-31T08:20:59.880Z,13.89
2019-03-31T08:21:59.870Z,14.1
2019-03-31T08:23:01.940Z,14.14
2019-03-31T08:23:59.898Z,14.18
2019-03-31T08:24:59.864Z,14.09
2019-03-31T08:25:59.847Z,14.06
2019-03-31T08:26:59.826Z,13.84
2019-03-31T08:27:59.825Z,13.84
2019-03-31T08:29:03.359Z,13.85
2019-03-31T08:30:05.538Z,13.82
2019-03-31T08:31:14.501Z,13.77
2019-03-31T08:31:59.801Z,13.73
2019-03-31T08:32:59.838Z,13.66
2019-03-31T08:33:59.790Z,13.63
2019-03-31T08:34:59.802Z,13.55
2019-03-31T08:35:59.784Z,13.45
2019-03-31T08:36:59.813Z,13.42
2019-03-31T08:37:59.801Z,13.36
2019-03-31T08:38:59.783Z,13.32
2019-03-31T08:39:59.760Z,13.42
2019-03-31T08:40:59.511Z,13.42
2019-03-31T08:41:59.775Z,13.46
2019-03-31T08:42:59.759Z,13.39
2019-03-31T08:43:59.769Z,13.39
2019-03-31T08:44:59.727Z,13.46
2019-03-31T08:45:59.759Z,13.48
2019-03-31T08:46:59.742Z,13.49
2019-03-31T08:47:59.773Z,13.6
2019-03-31T08:48:59.735Z,13.55
2019-03-31T08:50:01.970Z,13.67
2019-03-31T08:50:59.721Z,13.71
2019-03-31T08:51:59.689Z,13.82
2019-03-31T08:52:59.731Z,13.84
2019-03-31T08:53:59.704Z,13.87
2019-03-31T08:54:59.683Z,13.88
2019-03-31T08:55:59.418Z,13.78
2019-03-31T08:56:59.654Z,13.66
2019-03-31T08:57:59.675Z,13.52
2019-03-31T08:58:59.657Z,13.48
2019-03-31T08:59:59.666Z,13.39
2019-03-31T09:00:59.634Z,13.23
2019-03-31T09:02:03.020Z,13.12
2019-03-31T09:02:59.614Z,13.1
2019-03-31T09:03:59.643Z,13.12
2019-03-31T09:04:59.607Z,13.07
2019-03-31T09:06:06.681Z,13.03
2019-03-31T09:06:59.600Z,13.03
2019-03-31T09:07:59.614Z,13.03
2019-03-31T09:08:59.572Z,13.01
2019-03-31T09:09:59.331Z,12.95
2019-03-31T09:10:59.571Z,12.92
2019-03-31T09:11:59.581Z,12.74
2019-03-31T09:12:59.548Z,12.65
2019-03-31T09:13:59.565Z,12.46
2019-03-31T09:14:59.546Z,12.46
2019-03-31T09:15:59.554Z,12.47
2019-03-31T09:16:59.513Z,12.49
2019-03-31T09:17:59.536Z,12.65
2019-03-31T09:18:59.501Z,12.72
2019-03-31T09:19:59.529Z,12.96
2019-03-31T09:20:59.485Z,12.87
2019-03-31T09:21:59.523Z,12.86
2019-03-31T09:22:59.485Z,12.87
2019-03-31T09:23:59.497Z,12.82
2019-03-31T09:24:59.456Z,12.86
2019-03-31T09:25:59.489Z,13
2019-03-31T09:26:59.464Z,13
2019-03-31T09:27:59.448Z,13.14
2019-03-31T09:28:59.428Z,13.2
2019-03-31T09:29:59.450Z,13.22
2019-03-31T09:30:59.441Z,13.22
2019-03-31T09:31:59.443Z,13.04
2019-03-31T09:32:59.401Z,13.04
2019-03-31T09:33:59.423Z,12.96
2019-03-31T09:34:59.393Z,12.83
2019-03-31T09:35:59.410Z,13.01
2019-03-31T09:36:59.375Z,13.1
2019-03-31T09:37:59.394Z,13.25
2019-03-31T09:38:59.388Z,13.38
2019-03-31T09:39:59.357Z,13.3
2019-03-31T09:40:59.376Z,13.38
2019-03-31T09:41:59.373Z,13.42
2019-03-31T09:42:59.352Z,13.62
2019-03-31T09:43:59.323Z,13.63
2019-03-31T09:44:59.321Z,13.71
2019-03-31T09:45:59.341Z,13.73
2019-03-31T09:46:59.319Z,13.66
2019-03-31T09:47:59.332Z,13.54
2019-03-31T09:48:59.293Z,13.51
2019-03-31T09:49:59.314Z,13.6
2019-03-31T09:51:01.364Z,13.59
2019-03-31T09:51:59.305Z,13.6
2019-03-31T09:52:59.273Z,13.6
2019-03-31T09:53:59.287Z,13.71
2019-03-31T09:54:59.262Z,13.71
2019-03-31T09:55:59.277Z,13.7
2019-03-31T09:56:59.238Z,13.91
2019-03-31T09:57:59.240Z,14
2019-03-31T09:58:59.032Z,14.14
2019-03-31T09:59:59.253Z,14.25
2019-03-31T10:00:59.239Z,14.54
2019-03-31T10:01:59.208Z,14.57
2019-03-31T10:03:01.118Z,14.64
2019-03-31T10:03:59.217Z,14.62
2019-03-31T10:04:59.186Z,14.65
2019-03-31T10:06:13.050Z,14.73
2019-03-31T10:06:59.171Z,14.81
2019-03-31T10:07:59.208Z,15.01
2019-03-31T10:08:59.159Z,15.13
2019-03-31T10:09:59.185Z,15.25
2019-03-31T10:11:02.506Z,15.36
2019-03-31T10:11:59.175Z,15.38
2019-03-31T10:12:59.133Z,15.43
2019-03-31T10:13:59.132Z,15.44
2019-03-31T10:14:58.980Z,15.47
2019-03-31T10:15:59.149Z,15.29
2019-03-31T10:16:59.141Z,15.27
2019-03-31T10:17:59.110Z,15.16
2019-03-31T10:18:59.118Z,15.06
2019-03-31T10:19:59.097Z,14.84
2019-03-31T10:20:59.118Z,14.88
2019-03-31T10:21:59.087Z,14.83
2019-03-31T10:22:59.112Z,14.7
2019-03-31T10:23:59.062Z,14.65
2019-03-31T10:24:59.095Z,14.5
2019-03-31T10:25:59.054Z,14.29
2019-03-31T10:26:59.082Z,14.2
2019-03-31T10:27:58.803Z,14.03
2019-03-31T10:28:59.077Z,13.95
2019-03-31T10:29:59.041Z,13.7
2019-03-31T10:30:59.047Z,13.55
2019-03-31T10:31:59.048Z,13.51
2019-03-31T10:32:59.041Z,13.45
2019-03-31T10:33:59.007Z,13.42
2019-03-31T10:34:59.026Z,13.28
2019-03-31T10:35:58.743Z,13.2
2019-03-31T10:36:59.016Z,13.15
2019-03-31T10:37:58.977Z,13.19
2019-03-31T10:38:59.004Z,13.1
2019-03-31T10:39:58.722Z,13.07
2019-03-31T10:40:58.985Z,12.96
2019-03-31T10:41:59.034Z,12.95
2019-03-31T10:42:58.954Z,12.96
2019-03-31T10:43:58.937Z,12.89
2019-03-31T10:44:58.960Z,12.86
2019-03-31T10:45:58.945Z,12.87
2019-03-31T10:47:00.913Z,12.7
2019-03-31T10:47:58.899Z,12.77
2019-03-31T10:48:58.897Z,12.74
2019-03-31T10:49:58.912Z,12.68
2019-03-31T10:50:58.896Z,12.6
2019-03-31T10:51:58.958Z,12.56
2019-03-31T10:52:58.866Z,12.46
2019-03-31T10:53:58.885Z,12.49
2019-03-31T10:54:58.866Z,12.35
2019-03-31T10:55:58.840Z,12.37
2019-03-31T10:56:58.866Z,12.32
2019-03-31T10:57:58.831Z,12.5
2019-03-31T10:58:58.835Z,12.6
2019-03-31T10:59:58.811Z,12.72
2019-03-31T11:00:58.834Z,12.72
2019-03-31T11:01:58.827Z,12.96
2019-03-31T11:02:58.801Z,13
2019-03-31T11:03:58.783Z,13.2
2019-03-31T11:04:59.371Z,13.25
2019-03-31T11:05:58.792Z,13.38
2019-03-31T11:07:06.065Z,13.42
2019-03-31T11:07:58.783Z,13.69
2019-03-31T11:08:58.743Z,13.87
2019-03-31T11:09:58.762Z,14.14
2019-03-31T11:10:58.728Z,14.22
2019-03-31T11:11:58.753Z,14.32
2019-03-31T11:12:58.714Z,14.55
2019-03-31T11:13:58.798Z,14.72
2019-03-31T11:14:58.721Z,14.88
2019-03-31T11:16:02.266Z,14.77
2019-03-31T11:16:58.685Z,14.69
2019-03-31T11:17:58.690Z,14.65
2019-03-31T11:18:58.687Z,14.65
2019-03-31T11:20:00.678Z,14.68
2019-03-31T11:20:58.661Z,14.78
2019-03-31T11:21:58.682Z,14.84
2019-03-31T11:22:58.668Z,15.02
2019-03-31T11:23:58.677Z,15.25
2019-03-31T11:24:58.639Z,15.41
2019-03-31T11:25:58.660Z,15.64
2019-03-31T11:26:58.629Z,15.78
2019-03-31T11:27:58.655Z,15.97
2019-03-31T11:28:58.615Z,16.09
2019-03-31T11:29:58.642Z,16.34
2019-03-31T11:30:58.620Z,16.56
2019-03-31T11:31:58.630Z,16.75
2019-03-31T11:32:58.598Z,16.94
2019-03-31T11:33:58.596Z,16.83
2019-03-31T11:34:58.600Z,16.75
2019-03-31T11:35:58.638Z,16.76
2019-03-31T11:37:12.433Z,16.75
2019-03-31T11:37:58.686Z,16.7
2019-03-31T11:38:58.580Z,16.79
2019-03-31T11:39:58.560Z,16.98
2019-03-31T11:40:58.601Z,17.14
2019-03-31T11:41:58.567Z,17.34
2019-03-31T11:42:58.578Z,17.31
2019-03-31T11:43:58.540Z,17.4
2019-03-31T11:44:58.571Z,17.38
2019-03-31T11:45:58.539Z,17.22
2019-03-31T11:46:58.544Z,17.18
2019-03-31T11:47:58.561Z,16.98
2019-03-31T11:48:58.518Z,16.88
2019-03-31T11:49:58.526Z,16.79
2019-03-31T11:51:00.402Z,16.71
2019-03-31T11:51:58.537Z,16.52
2019-03-31T11:52:58.535Z,16.24
2019-03-31T11:53:58.500Z,16.02
2019-03-31T11:54:58.507Z,15.89
2019-03-31T11:55:58.494Z,15.67
2019-03-31T11:56:58.519Z,15.53
2019-03-31T11:57:58.511Z,15.54
2019-03-31T11:58:58.506Z,15.54
2019-03-31T11:59:58.477Z,15.53
2019-03-31T12:00:58.500Z,15.53
2019-03-31T12:01:58.457Z,15.59
2019-03-31T12:02:58.487Z,15.54
2019-03-31T12:03:58.451Z,15.53
2019-03-31T12:04:58.474Z,15.5
2019-03-31T12:05:58.479Z,15.49
2019-03-31T12:06:58.450Z,15.46
2019-03-31T12:07:58.427Z,15.47
2019-03-31T12:08:58.430Z,15.32
2019-03-31T12:09:58.445Z,15.25
2019-03-31T12:10:58.434Z,15.2
2019-03-31T12:11:58.413Z,15.09
2019-03-31T12:12:58.445Z,15.16
2019-03-31T12:13:58.403Z,15.13
2019-03-31T12:15:05.367Z,15.07
2019-03-31T12:15:58.382Z,15.09
2019-03-31T12:16:58.424Z,15.09
2019-03-31T12:17:58.374Z,15.11
2019-03-31T12:18:58.383Z,15.16
2019-03-31T12:19:58.367Z,15.16
2019-03-31T12:20:58.141Z,15.19
2019-03-31T12:21:58.379Z,15.2
2019-03-31T12:22:58.431Z,15.2
2019-03-31T12:23:58.338Z,15.2
2019-03-31T12:24:58.330Z,15.17
2019-03-31T12:25:58.353Z,15.23
2019-03-31T12:26:58.341Z,15.27
2019-03-31T12:27:58.351Z,15.31
2019-03-31T12:28:58.317Z,15.38
2019-03-31T12:29:58.329Z,15.43
2019-03-31T12:30:58.297Z,15.41
2019-03-31T12:31:58.325Z,15.56
2019-03-31T12:32:58.286Z,15.65
2019-03-31T12:33:58.308Z,15.83
2019-03-31T12:34:58.299Z,16.02
2019-03-31T12:35:58.311Z,16.09
2019-03-31T12:36:58.261Z,16.27
2019-03-31T12:37:58.295Z,16.45
2019-03-31T12:38:58.833Z,16.63
2019-03-31T12:39:58.245Z,16.68
2019-03-31T12:40:58.239Z,16.83
2019-03-31T12:41:58.261Z,16.97
2019-03-31T12:42:58.249Z,17.06
2019-03-31T12:43:58.261Z,17.11
2019-03-31T12:44:58.220Z,17.25
2019-03-31T12:45:58.244Z,17.41
2019-03-31T12:47:00.998Z,17.52
2019-03-31T12:48:01.091Z,17.56
2019-03-31T12:48:58.200Z,17.62
2019-03-31T12:49:58.226Z,17.64
2019-03-31T12:50:58.213Z,17.75
2019-03-31T12:51:59.903Z,17.77
2019-03-31T12:52:58.240Z,17.89
2019-03-31T12:53:58.202Z,17.79
2019-03-31T12:54:58.187Z,17.56
2019-03-31T12:56:05.027Z,17.25
2019-03-31T12:56:58.165Z,17.07
2019-03-31T12:57:58.188Z,16.82
2019-03-31T12:58:58.171Z,16.63
2019-03-31T12:59:58.203Z,16.45
2019-03-31T13:00:58.148Z,16.33
2019-03-31T13:01:58.163Z,16.21
2019-03-31T13:02:57.906Z,15.97
2019-03-31T13:03:58.133Z,15.86
2019-03-31T13:04:58.156Z,15.67
2019-03-31T13:05:58.117Z,15.54
2019-03-31T13:06:58.132Z,15.39
2019-03-31T13:08:01.435Z,15.21
2019-03-31T13:08:58.134Z,15.03
2019-03-31T13:09:58.126Z,14.88
2019-03-31T13:10:57.868Z,14.8
2019-03-31T13:11:58.092Z,14.61
2019-03-31T13:12:58.086Z,14.6
2019-03-31T13:13:58.116Z,14.55
2019-03-31T13:14:58.092Z,14.55
2019-03-31T13:15:58.097Z,14.37
2019-03-31T13:17:01.253Z,14.32
2019-03-31T13:17:58.084Z,14.2
2019-03-31T13:18:58.060Z,14.17
2019-03-31T13:19:58.093Z,13.89
2019-03-31T13:20:58.033Z,13.84
2019-03-31T13:21:58.072Z,13.63
2019-03-31T13:22:58.035Z,13.57
2019-03-31T13:23:58.058Z,13.49
2019-03-31T13:24:58.012Z,13.6
2019-03-31T13:25:58.012Z,13.51
2019-03-31T13:26:58.026Z,13.55
2019-03-31T13:27:58.038Z,13.6
2019-03-31T13:28:57.981Z,13.44
2019-03-31T13:29:58.018Z,13.49
2019-03-31T13:30:57.990Z,13.44
2019-03-31T13:31:58.005Z,13.41
2019-03-31T13:32:57.953Z,13.38
2019-03-31T13:33:57.974Z,13.41
2019-03-31T13:34:57.938Z,13.39
2019-03-31T13:35:58.211Z,13.51
2019-03-31T13:36:57.924Z,13.52
2019-03-31T13:38:12.712Z,13.63
2019-03-31T13:38:57.926Z,13.6
2019-03-31T13:39:57.932Z,13.67
2019-03-31T13:40:57.899Z,13.64
2019-03-31T13:41:57.905Z,13.64
2019-03-31T13:42:57.893Z,13.62
2019-03-31T13:43:57.908Z,13.67
2019-03-31T13:44:57.897Z,13.69
2019-03-31T13:46:00.117Z,13.63
2019-03-31T13:46:57.865Z,13.64
2019-03-31T13:48:00.996Z,13.7
2019-03-31T13:48:57.870Z,13.82
2019-03-31T13:49:57.831Z,13.89